Time;durP1;ratioP1;P1;durP2;ratioP2;P2;SDS_P1;SDS_P2;PMS_P1;PMS_P2;Temp;Humidity;BMP_temperature;BMP_pressure;BME280_temperature;BME280_humidity;BME280_pressure;Samples;Min_cycle;Max_cycle;Signal;HPM_P1;HPM_P2
2022/03/11 00:02:12;;;;;;;;;33.25;22.00;;;;;10.76;57.06;101107.75;5011226;28;46243;-71
2022/03/11 00:04:38;;;;;;;;;25.75;22.75;;;;;10.71;56.65;101105.28;5011246;28;45466;-71
2022/03/11 00:07:04;;;;;;;;;31.00;22.50;;;;;10.72;56.80;101107.00;5011408;28;45415;-72
2022/03/11 00:09:29;;;;;;;;;34.75;24.00;;;;;10.69;57.14;101101.84;5012282;28;45587;-71
2022/03/11 00:11:54;;;;;;;;;27.25;24.25;;;;;10.65;57.36;101092.38;5010785;28;45948;-71
2022/03/11 00:14:19;;;;;;;;;25.00;22.50;;;;;10.64;57.84;101091.50;5011617;28;45547;-71
2022/03/11 00:16:45;;;;;;;;;27.00;22.50;;;;;10.66;57.53;101091.44;5011804;28;45478;-71
2022/03/11 00:19:11;;;;;;;;;28.50;24.25;;;;;10.65;57.88;101085.34;5010792;28;46175;-71
2022/03/11 00:21:36;;;;;;;;;23.50;23.50;;;;;10.68;58.26;101087.84;5012040;28;46828;-71
2022/03/11 00:24:02;;;;;;;;;26.25;25.00;;;;;10.67;57.99;101083.50;5010943;28;45514;-71
2022/03/11 00:26:27;;;;;;;;;27.00;21.25;;;;;10.64;58.05;101078.34;5011141;28;45919;-71
2022/03/11 00:28:52;;;;;;;;;25.75;20.00;;;;;10.61;58.37;101086.38;5010985;28;48085;-71
2022/03/11 00:31:18;;;;;;;;;26.25;19.50;;;;;10.57;58.37;101081.28;4995778;28;45750;-71
2022/03/11 00:33:43;;;;;;;;;33.50;25.00;;;;;10.56;58.50;101077.78;5007904;28;45617;-71
2022/03/11 00:36:09;;;;;;;;;28.50;24.00;;;;;10.57;58.77;101071.63;5010870;28;45400;-71
2022/03/11 00:38:35;;;;;;;;;32.25;23.50;;;;;10.56;58.58;101069.91;5011220;28;47470;-71
2022/03/11 00:41:00;;;;;;;;;21.25;19.25;;;;;10.58;58.58;101064.59;5008970;28;45572;-71
2022/03/11 00:43:26;;;;;;;;;25.75;20.50;;;;;10.61;58.66;101067.13;5008935;28;45483;-71
2022/03/11 00:45:53;;;;;;;;;26.25;23.75;;;;;10.64;58.78;101062.56;5011526;28;45564;-71
2022/03/11 00:48:20;;;;;;;;;24.25;21.75;;;;;10.67;58.72;101057.22;5010816;28;46350;-71
2022/03/11 00:50:45;;;;;;;;;26.00;22.00;;;;;10.75;58.85;101050.78;5008169;28;46174;-72
2022/03/11 00:53:11;;;;;;;;;23.75;20.50;;;;;10.80;58.89;101051.47;5006541;28;45443;-71
2022/03/11 00:55:36;;;;;;;;;27.50;22.25;;;;;10.80;58.60;101052.31;5012786;28;45590;-71
2022/03/11 00:58:01;;;;;;;;;29.25;23.25;;;;;10.77;58.62;101043.72;5014484;28;45438;-71
2022/03/11 01:00:27;;;;;;;;;27.50;20.25;;;;;10.70;58.54;101054.47;5014474;28;47319;-71
2022/03/11 01:02:52;;;;;;;;;22.00;17.00;;;;;10.67;58.57;101051.09;5013415;28;45372;-71
2022/03/11 01:05:17;;;;;;;;;24.25;20.00;;;;;10.61;58.95;101040.84;5013885;28;45404;-71
2022/03/11 01:07:43;;;;;;;;;27.50;17.25;;;;;10.60;58.76;101034.72;5017663;28;45880;-71
2022/03/11 01:10:09;;;;;;;;;25.00;21.25;;;;;10.60;59.21;101025.97;5017314;28;45353;-71
2022/03/11 01:12:37;;;;;;;;;23.75;19.00;;;;;10.59;58.77;101032.13;5017597;28;45403;-71
2022/03/11 01:15:03;;;;;;;;;23.00;22.00;;;;;10.60;59.06;101033.88;5016955;28;45479;-71
2022/03/11 01:17:29;;;;;;;;;22.75;19.00;;;;;10.61;58.87;101035.56;5016969;28;46343;-71
2022/03/11 01:19:54;;;;;;;;;21.00;17.25;;;;;10.61;59.13;101033.81;5017250;28;45584;-71
2022/03/11 01:22:19;;;;;;;;;24.50;19.25;;;;;10.66;59.07;101033.63;4999657;28;45316;-71
2022/03/11 01:24:45;;;;;;;;;19.00;18.50;;;;;10.72;59.01;101028.13;5018025;28;45379;-71
2022/03/11 01:27:10;;;;;;;;;6.75;5.25;;;;;10.78;58.86;101025.25;5017255;28;45452;-71
2022/03/11 01:29:35;;;;;;;;;20.50;16.50;;;;;10.81;58.67;101024.28;5016798;28;45427;-71
2022/03/11 01:32:01;;;;;;;;;23.50;17.00;;;;;10.83;58.76;101012.78;5012663;28;45786;-71
2022/03/11 01:34:26;;;;;;;;;24.50;21.00;;;;;10.84;58.72;101006.59;5016115;28;45396;-71
2022/03/11 01:36:52;;;;;;;;;20.50;16.00;;;;;10.90;58.39;101019.50;5014220;28;46138;-71
2022/03/11 01:39:17;;;;;;;;;27.00;17.25;;;;;10.92;58.08;101012.44;5012788;28;45552;-71
2022/03/11 01:41:42;;;;;;;;;23.25;18.75;;;;;10.96;58.14;101005.25;5016789;28;45528;-71
2022/03/11 01:44:09;;;;;;;;;22.50;18.00;;;;;10.99;58.27;101005.13;5011386;28;47441;-71
2022/03/11 01:46:36;;;;;;;;;22.25;17.50;;;;;11.05;58.65;101004.03;5014450;28;46350;-71
2022/03/11 01:49:04;;;;;;;;;21.50;17.25;;;;;11.10;58.49;101012.59;5015282;28;45971;-71
2022/03/11 01:51:33;;;;;;;;;18.25;17.00;;;;;11.15;58.02;101002.75;5015723;28;45297;-71
2022/03/11 01:53:59;;;;;;;;;20.00;15.25;;;;;11.18;58.13;100992.97;5012419;28;45580;-71
2022/03/11 01:56:25;;;;;;;;;24.00;16.75;;;;;11.22;58.01;101001.56;5012216;28;46361;-71
2022/03/11 01:58:53;;;;;;;;;30.25;21.00;;;;;11.23;58.24;100985.72;5012354;28;45352;-71
2022/03/11 02:01:20;;;;;;;;;25.75;18.75;;;;;11.26;58.05;100986.50;5016708;28;45575;-71
2022/03/11 02:03:46;;;;;;;;;21.25;20.00;;;;;11.27;58.14;100985.59;5013201;28;45503;-71
2022/03/11 02:06:13;;;;;;;;;35.00;19.75;;;;;11.28;58.05;100992.59;5012142;28;45995;-71
2022/03/11 02:08:39;;;;;;;;;22.50;21.00;;;;;11.30;57.83;100991.59;5012389;28;45992;-71
2022/03/11 02:11:04;;;;;;;;;22.00;20.00;;;;;11.29;58.21;100986.41;5015856;28;45372;-71
2022/03/11 02:13:52;;;;;;;;;24.50;19.75;;;;;11.33;58.35;100990.59;5014555;28;45661;-71
2022/03/11 02:16:23;;;;;;;;;23.00;19.50;;;;;11.32;58.18;100981.00;5016262;28;45972;-71
2022/03/11 02:18:49;;;;;;;;;22.00;15.75;;;;;11.32;58.39;100988.88;5012735;28;45758;-71
2022/03/11 02:21:17;;;;;;;;;25.25;20.25;;;;;11.31;58.02;100984.53;5012239;28;45317;-71
2022/03/11 02:23:45;;;;;;;;;27.00;21.00;;;;;11.30;58.49;100985.47;5011972;28;45516;-71
2022/03/11 02:26:12;;;;;;;;;20.50;16.75;;;;;11.28;58.70;100982.91;5011616;28;46203;-71
2022/03/11 02:28:37;;;;;;;;;23.25;21.00;;;;;11.27;58.60;100988.22;5013285;28;46115;-71
2022/03/11 02:31:03;;;;;;;;;22.25;18.25;;;;;11.28;58.49;100982.91;5014634;28;45396;-71
2022/03/11 02:33:28;;;;;;;;;26.00;22.25;;;;;11.29;58.38;100973.25;5012364;28;45492;-71
2022/03/11 02:35:54;;;;;;;;;24.75;21.50;;;;;11.31;58.88;100981.91;5011780;28;46101;-71
2022/03/11 02:38:19;;;;;;;;;22.00;18.50;;;;;11.31;58.50;100979.28;5011717;28;45531;-71
2022/03/11 02:40:45;;;;;;;;;25.50;18.75;;;;;11.29;58.69;100978.50;5015161;28;45297;-71
2022/03/11 02:43:10;;;;;;;;;25.00;19.25;;;;;11.28;59.03;100971.53;5015827;28;45835;-71
2022/03/11 02:45:35;;;;;;;;;21.50;20.00;;;;;11.26;59.06;100965.47;5012117;28;46702;-71
2022/03/11 02:48:01;;;;;;;;;23.75;20.25;;;;;11.24;58.83;100969.03;5015711;28;45274;-71
2022/03/11 02:50:26;;;;;;;;;21.75;19.75;;;;;11.20;58.98;100962.16;5011623;28;45364;-71
2022/03/11 02:52:52;;;;;;;;;21.75;19.50;;;;;11.17;59.16;100959.69;5012033;28;45380;-71
2022/03/11 02:55:17;;;;;;;;;23.00;16.25;;;;;11.13;59.21;100952.84;5014917;28;45392;-71
2022/03/11 02:57:42;;;;;;;;;17.25;15.00;;;;;11.09;59.26;100956.50;5016120;28;45298;-71
2022/03/11 03:00:08;;;;;;;;;28.50;19.25;;;;;11.05;59.38;100954.06;5011258;28;45285;-71
2022/03/11 03:02:33;;;;;;;;;23.25;16.25;;;;;11.00;59.26;100959.50;5011632;28;45480;-72
2022/03/11 03:04:59;;;;;;;;;24.25;19.00;;;;;10.95;59.57;100959.69;5011196;28;46133;-71
2022/03/11 03:07:24;;;;;;;;;20.25;18.75;;;;;10.91;59.72;100952.88;5014916;28;45437;-72
2022/03/11 03:09:49;;;;;;;;;27.75;19.25;;;;;10.86;59.53;100946.94;5012717;28;45297;-72
2022/03/11 03:12:14;;;;;;;;;23.50;18.25;;;;;10.79;59.91;100937.56;5014189;28;45274;-71
2022/03/11 03:14:40;;;;;;;;;27.75;20.75;;;;;10.70;60.06;100936.19;5011092;28;47186;-71
2022/03/11 03:17:06;;;;;;;;;25.25;16.50;;;;;10.64;60.38;100938.19;5019882;28;45359;-71
2022/03/11 03:19:32;;;;;;;;;21.50;20.00;;;;;10.58;60.31;100935.81;5023130;28;45382;-71
2022/03/11 03:21:58;;;;;;;;;28.50;18.75;;;;;10.52;60.61;100929.03;5013149;28;45564;-71
2022/03/11 03:24:23;;;;;;;;;23.75;20.25;;;;;10.46;60.72;100916.13;5011278;28;46611;-71
2022/03/11 03:26:48;;;;;;;;;25.25;20.25;;;;;10.42;60.72;100917.16;5010795;28;45471;-71
2022/03/11 03:29:14;;;;;;;;;22.00;17.25;;;;;10.38;60.98;100915.56;5009983;28;45395;-71
2022/03/11 03:31:39;;;;;;;;;26.00;20.75;;;;;10.36;60.66;100907.75;5012512;28;45488;-71
2022/03/11 03:34:04;;;;;;;;;21.00;16.50;;;;;10.34;60.98;100911.38;5014105;28;46096;-71
2022/03/11 03:36:29;;;;;;;;;22.00;14.75;;;;;10.29;61.18;100905.44;5010995;28;45317;-71
2022/03/11 03:38:55;;;;;;;;;15.50;14.50;;;;;10.25;61.47;100906.47;5011109;28;45215;-71
2022/03/11 03:41:20;;;;;;;;;22.50;17.50;;;;;10.23;61.50;100910.88;5013881;28;45405;-71
2022/03/11 03:43:45;;;;;;;;;18.25;16.25;;;;;10.18;61.92;100909.31;5006781;28;45487;-71
2022/03/11 03:46:11;;;;;;;;;20.00;16.75;;;;;10.15;62.16;100912.03;5014611;28;45374;-71
2022/03/11 03:48:36;;;;;;;;;17.50;15.00;;;;;10.11;62.12;100913.06;5015004;28;45484;-71
2022/03/11 03:51:03;;;;;;;;;14.75;14.50;;;;;10.08;62.06;100907.09;5010500;28;45368;-71
2022/03/11 03:53:28;;;;;;;;;23.00;17.00;;;;;10.05;62.18;100915.09;5010425;28;46238;-71
2022/03/11 03:55:54;;;;;;;;;19.50;17.75;;;;;10.03;62.73;100906.41;5010322;28;45450;-71
2022/03/11 03:58:19;;;;;;;;;23.75;18.50;;;;;10.00;62.25;100902.13;5015227;28;45368;-71
2022/03/11 04:00:44;;;;;;;;;18.75;15.75;;;;;9.98;62.90;100898.72;5011340;28;45310;-71
2022/03/11 04:03:09;;;;;;;;;17.50;17.50;;;;;9.95;63.04;100893.56;5010357;28;46242;-71
2022/03/11 04:05:35;;;;;;;;;15.00;14.50;;;;;9.93;63.09;100895.41;5010578;28;45447;-71
2022/03/11 04:08:00;;;;;;;;;20.50;17.50;;;;;9.89;63.10;100897.28;5010484;28;45360;-71
2022/03/11 04:10:26;;;;;;;;;17.75;17.75;;;;;9.87;63.34;100893.00;5014204;28;45299;-71
2022/03/11 04:12:51;;;;;;;;;17.00;14.25;;;;;9.85;63.16;100885.19;5010577;28;46252;-71
2022/03/11 04:15:17;;;;;;;;;20.75;15.50;;;;;9.84;63.24;100887.88;5010708;28;45547;-71
2022/03/11 04:17:42;;;;;;;;;16.75;15.75;;;;;9.81;63.22;100882.72;5013929;28;45821;-71
2022/03/11 04:20:08;;;;;;;;;19.25;16.50;;;;;9.80;63.38;100875.75;5010210;28;45682;-72
2022/03/11 04:22:40;;;;;;;;;19.00;16.50;;;;;9.77;63.86;100875.91;5012439;28;45368;-71
2022/03/11 04:25:06;;;;;;;;;13.25;12.50;;;;;9.73;63.73;100880.41;5012820;28;45383;-71
2022/03/11 04:27:31;;;;;;;;;19.50;13.25;;;;;9.71;63.66;100870.84;5010863;28;45368;-71
2022/03/11 04:29:56;;;;;;;;;17.00;15.50;;;;;9.68;63.48;100871.84;5010404;28;45427;-72
2022/03/11 04:32:21;;;;;;;;;18.25;12.50;;;;;9.66;63.82;100869.28;5009893;28;46178;-71
2022/03/11 04:34:47;;;;;;;;;15.25;13.75;;;;;9.63;64.21;100873.78;5010697;28;45400;-71
2022/03/11 04:37:12;;;;;;;;;19.50;15.50;;;;;9.62;63.99;100875.53;5014139;28;45459;-71
2022/03/11 04:39:38;;;;;;;;;15.50;13.25;;;;;9.60;64.58;100879.97;5010287;28;45347;-71
2022/03/11 04:42:06;;;;;;;;;14.00;12.00;;;;;9.58;64.43;100884.44;5018301;28;45963;-71
2022/03/11 04:44:32;;;;;;;;;16.25;14.00;;;;;9.55;64.73;100878.44;5012241;28;45904;-71
2022/03/11 04:46:57;;;;;;;;;15.50;14.25;;;;;9.51;65.00;100880.34;5020026;28;45485;-72
2022/03/11 04:49:22;;;;;;;;;19.00;13.00;;;;;9.52;65.00;100881.19;5020692;28;45437;-71
2022/03/11 04:51:48;;;;;;;;;15.33;12.33;;;;;9.50;64.59;100878.63;5017358;28;49226;-71
2022/03/11 04:54:13;;;;;;;;;13.50;13.50;;;;;9.47;64.90;100881.34;5016076;28;45432;-71
2022/03/11 04:56:38;;;;;;;;;11.67;11.67;;;;;9.46;64.76;100881.41;5016113;28;45456;-72
2022/03/11 04:59:04;;;;;;;;;12.75;12.50;;;;;9.44;65.18;100881.44;5016111;28;45388;-71
2022/03/11 05:01:29;;;;;;;;;14.25;13.00;;;;;9.43;65.15;100878.88;5018981;28;45507;-71
2022/03/11 05:03:54;;;;;;;;;14.25;8.50;;;;;9.43;65.16;100866.63;5018267;28;45563;-71
2022/03/11 05:06:20;;;;;;;;;13.00;9.25;;;;;9.41;64.95;100865.84;5020254;28;45403;-71
2022/03/11 05:08:46;;;;;;;;;14.50;11.50;;;;;9.38;65.05;100864.16;5015771;28;45540;-71
2022/03/11 05:11:11;;;;;;;;;14.50;11.00;;;;;9.35;65.46;100858.19;5015984;28;45453;-71
2022/03/11 05:13:36;;;;;;;;;11.25;11.00;;;;;9.32;65.35;100859.13;5018393;28;45324;-71
2022/03/11 05:16:02;;;;;;;;;17.50;13.50;;;;;9.32;65.52;100856.50;5018911;28;45838;-71
2022/03/11 05:18:28;;;;;;;;;17.50;11.50;;;;;9.31;65.35;100861.81;5016556;28;45286;-71
2022/03/11 05:20:53;;;;;;;;;11.50;10.00;;;;;9.29;66.17;100861.00;5016155;28;46313;-71
2022/03/11 05:23:18;;;;;;;;;14.00;13.50;;;;;9.26;65.99;100848.03;5015503;28;45307;-71
2022/03/11 05:25:44;;;;;;;;;13.00;11.75;;;;;9.27;65.90;100852.34;5017113;28;45558;-71
2022/03/11 05:28:09;;;;;;;;;11.00;9.50;;;;;9.23;66.17;100845.50;5019742;28;45542;-71
2022/03/11 05:30:36;;;;;;;;;13.25;12.25;;;;;9.24;65.42;100845.47;5015352;28;45534;-72
2022/03/11 05:33:02;;;;;;;;;17.25;9.25;;;;;9.23;66.59;100850.75;5019609;28;45865;-71
2022/03/11 05:35:28;;;;;;;;;13.75;11.00;;;;;9.23;66.65;100842.88;5015941;28;45448;-71
2022/03/11 05:37:53;;;;;;;;;13.00;8.50;;;;;9.20;66.30;100848.25;5018230;28;45435;-72
2022/03/11 05:40:18;;;;;;;;;14.50;11.50;;;;;9.19;66.66;100838.63;5018092;28;48046;-72
2022/03/11 05:42:43;;;;;;;;;13.00;8.25;;;;;9.18;66.80;100843.03;5015807;28;45754;-71
2022/03/11 05:45:09;;;;;;;;;13.25;9.75;;;;;9.18;66.35;100839.56;5018638;28;45293;-71
2022/03/11 05:47:35;;;;;;;;;14.25;8.25;;;;;9.16;66.98;100826.50;5019888;28;45275;-71
2022/03/11 05:50:00;;;;;;;;;16.50;13.50;;;;;9.15;66.49;100832.66;5015074;28;45393;-71
2022/03/11 05:52:26;;;;;;;;;18.00;11.75;;;;;9.13;66.55;100823.97;5017087;28;45346;-72
2022/03/11 05:54:51;;;;;;;;;12.00;9.00;;;;;9.13;66.97;100823.97;5007837;28;45454;-71
2022/03/11 05:57:17;;;;;;;;;12.50;8.00;;;;;9.12;66.41;100825.75;5012439;28;45270;-71
2022/03/11 05:59:42;;;;;;;;;13.50;11.00;;;;;9.13;67.17;100816.13;5013311;28;45997;-71
2022/03/11 06:02:08;;;;;;;;;14.25;10.00;;;;;9.15;67.28;100830.06;5016224;28;45380;-71
2022/03/11 06:04:33;;;;;;;;;11.25;8.50;;;;;9.13;67.26;100835.34;5015316;28;45471;-72
2022/03/11 06:06:58;;;;;;;;;14.00;11.50;;;;;9.15;67.29;100824.81;5016279;28;45384;-71
2022/03/11 06:09:23;;;;;;;;;9.00;8.50;;;;;9.15;67.33;100825.66;5012465;28;46081;-71
2022/03/11 06:11:49;;;;;;;;;16.75;11.75;;;;;9.19;66.96;100830.78;5011697;28;45729;-71
2022/03/11 06:14:14;;;;;;;;;10.50;9.00;;;;;9.22;67.20;100820.19;5012428;28;45304;-72
2022/03/11 06:16:39;;;;;;;;;12.00;10.00;;;;;9.23;66.85;100828.00;5013697;28;45388;-72
2022/03/11 06:19:05;;;;;;;;;13.00;8.75;;;;;9.26;67.14;100829.66;5015065;28;46467;-71
2022/03/11 06:21:30;;;;;;;;;12.50;8.50;;;;;9.29;66.90;100826.91;5012442;28;45377;-72
2022/03/11 06:23:57;;;;;;;;;17.00;8.75;;;;;9.32;66.72;100827.66;5014609;28;45478;-71
2022/03/11 06:26:23;;;;;;;;;10.25;7.25;;;;;9.36;66.89;100820.56;5015090;28;45465;-72
2022/03/11 06:28:48;;;;;;;;;11.25;8.75;;;;;9.41;67.14;100818.63;5011850;28;46223;-71
2022/03/11 06:31:13;;;;;;;;;10.25;7.75;;;;;9.46;67.02;100814.06;4997270;28;45338;-71
2022/03/11 06:33:39;;;;;;;;;12.00;9.75;;;;;9.53;67.11;100814.69;5016803;28;45447;-71
2022/03/11 06:36:05;;;;;;;;;9.25;8.75;;;;;9.59;66.90;100824.94;5014748;28;45799;-71
2022/03/11 06:38:30;;;;;;;;;9.00;7.00;;;;;9.67;66.52;100812.41;5015093;28;46038;-71
2022/03/11 06:40:56;;;;;;;;;11.00;10.00;;;;;9.74;66.55;100819.13;5015835;28;45404;-71
2022/03/11 06:43:22;;;;;;;;;8.75;8.75;;;;;9.82;66.30;100811.81;5015074;28;45917;-71
2022/03/11 06:45:47;;;;;;;;;10.00;7.00;;;;;9.91;66.61;100815.84;5016037;28;45429;-71
2022/03/11 06:48:13;;;;;;;;;8.25;7.00;;;;;10.01;66.55;100816.34;5011360;28;46212;-71
2022/03/11 06:50:38;;;;;;;;;11.75;8.75;;;;;10.10;65.92;100818.59;5011860;28;45562;-71
2022/03/11 06:53:03;;;;;;;;;8.75;8.75;;;;;10.13;65.57;100808.00;5012293;28;45588;-71
2022/03/11 06:55:29;;;;;;;;;8.75;7.25;;;;;10.23;65.62;100813.69;5014637;28;45313;-71
2022/03/11 06:57:54;;;;;;;;;7.00;6.00;;;;;10.29;65.82;100803.00;5015499;28;46252;-71
2022/03/11 07:00:20;;;;;;;;;7.00;6.25;;;;;10.37;65.24;100806.16;5015568;28;45366;-71
2022/03/11 07:02:45;;;;;;;;;9.50;7.75;;;;;10.44;65.50;100805.88;5010798;28;45340;-71
2022/03/11 07:05:11;;;;;;;;;14.00;9.25;;;;;10.51;65.32;100795.94;5010647;28;45342;-71
2022/03/11 07:07:37;;;;;;;;;8.00;7.00;;;;;10.58;65.20;100797.38;5013275;28;46119;-71
2022/03/11 07:10:05;;;;;;;;;6.25;6.25;;;;;10.68;64.82;100792.59;5014837;28;45685;-71
2022/03/11 07:12:31;;;;;;;;;11.75;7.25;;;;;10.75;64.79;100799.28;5013772;28;45446;-71
2022/03/11 07:14:59;;;;;;;;;7.75;7.00;;;;;10.83;64.70;100786.69;5010929;28;45464;-71
2022/03/11 07:17:24;;;;;;;;;8.75;7.00;;;;;10.90;64.36;100792.53;5015065;28;46319;-71
2022/03/11 07:19:50;;;;;;;;;10.25;8.75;;;;;10.97;64.22;100794.84;4993028;28;48297;-71
2022/03/11 07:22:15;;;;;;;;;7.00;7.00;;;;;11.03;63.93;100798.97;5015059;28;45431;-72
2022/03/11 07:24:41;;;;;;;;;6.50;6.00;;;;;11.11;64.05;100793.38;5013378;28;45497;-71
2022/03/11 07:27:06;;;;;;;;;7.00;5.25;;;;;11.19;63.72;100783.38;5010460;28;48223;-71
2022/03/11 07:29:32;;;;;;;;;10.25;7.25;;;;;11.28;63.99;100785.59;5010361;28;45512;-71
2022/03/11 07:31:57;;;;;;;;;8.75;7.00;;;;;11.45;63.68;100780.41;4996508;28;45542;-71
2022/03/11 07:34:23;;;;;;;;;7.25;6.25;;;;;11.60;62.94;100784.13;5014027;28;45448;-71
2022/03/11 07:36:49;;;;;;;;;7.25;5.75;;;;;11.68;62.77;100787.22;5011586;28;46587;-71
2022/03/11 07:39:14;;;;;;;;;10.75;5.00;;;;;11.73;62.72;100779.97;5013521;28;45486;-71
2022/03/11 07:41:40;;;;;;;;;7.00;7.00;;;;;11.86;62.37;100771.53;4992012;28;45356;-70
2022/03/11 07:44:05;;;;;;;;;4.00;4.00;;;;;11.98;62.05;100777.06;5010571;28;45549;-71
2022/03/11 07:46:31;;;;;;;;;8.50;7.25;;;;;12.12;61.71;100773.78;5013542;28;45404;-70
2022/03/11 07:48:57;;;;;;;;;6.00;5.50;;;;;12.34;61.84;100770.94;5014851;28;45419;-72
2022/03/11 07:51:25;;;;;;;;;9.50;5.25;;;;;12.80;60.97;100768.63;5011178;28;46878;-72
2022/03/11 07:53:50;;;;;;;;;7.00;6.00;;;;;13.29;60.27;100758.97;5013211;28;45451;-72
2022/03/11 07:56:16;;;;;;;;;7.00;5.25;;;;;13.67;59.15;100763.09;5002613;28;46117;-71
2022/03/11 07:58:41;;;;;;;;;7.00;4.00;;;;;13.90;58.85;100759.19;5010968;28;45472;-71
2022/03/11 08:01:11;;;;;;;;;6.50;5.00;;;;;13.97;58.57;100761.38;5012995;28;45578;-71
2022/03/11 08:03:38;;;;;;;;;8.00;5.00;;;;;13.94;57.87;100756.31;5010710;28;45492;-71
2022/03/11 08:06:04;;;;;;;;;5.00;5.00;;;;;13.96;57.77;100759.69;5011053;28;46016;-71
2022/03/11 08:08:30;;;;;;;;;5.00;5.00;;;;;14.06;57.67;100747.66;5012946;28;45470;-71
2022/03/11 08:10:56;;;;;;;;;6.50;4.75;;;;;14.15;57.54;100746.28;5013892;28;45563;-71
2022/03/11 08:13:21;;;;;;;;;6.50;5.00;;;;;14.36;57.29;100754.78;5014397;28;45405;-71
2022/03/11 08:15:47;;;;;;;;;5.00;4.00;;;;;14.70;56.47;100743.06;5013589;28;45350;-70
2022/03/11 08:18:12;;;;;;;;;4.25;3.75;;;;;15.36;56.19;100745.19;5012839;28;46246;-71
2022/03/11 08:20:38;;;;;;;;;9.25;7.00;;;;;16.73;55.68;100733.63;5009381;28;45382;-71
2022/03/11 08:23:03;;;;;;;;;4.25;4.25;;;;;18.06;54.06;100730.28;5012564;28;47879;-71
2022/03/11 08:25:28;;;;;;;;;4.00;2.75;;;;;18.83;50.29;100735.16;5012285;28;45499;-71
2022/03/11 08:27:55;;;;;;;;;4.50;4.25;;;;;19.34;49.35;100732.88;5013002;28;45380;-71
2022/03/11 08:30:22;;;;;;;;;4.50;4.50;;;;;20.46;48.63;100727.25;5012291;28;45496;-72
2022/03/11 08:32:48;;;;;;;;;4.00;4.00;;;;;21.63;46.36;100726.84;5013630;28;45459;-71
2022/03/11 08:35:14;;;;;;;;;5.00;4.00;;;;;22.22;45.32;100711.72;5013389;28;46235;-72
2022/03/11 08:37:40;;;;;;;;;9.00;5.75;;;;;22.46;43.73;100723.84;5013314;28;45746;-71
2022/03/11 08:40:06;;;;;;;;;4.25;4.25;;;;;22.51;45.02;100719.75;5013106;28;45515;-71
2022/03/11 08:42:32;;;;;;;;;6.50;6.25;;;;;22.71;42.95;100720.56;5001083;28;45491;-72
2022/03/11 08:45:01;;;;;;;;;5.00;5.00;;;;;23.36;42.25;100710.72;5011798;28;45305;-72
2022/03/11 08:47:28;;;;;;;;;2.00;1.00;;;;;24.13;42.32;100695.13;5017240;28;45316;-72
2022/03/11 08:49:54;;;;;;;;;3.00;3.00;;;;;24.67;39.99;100702.13;5021159;28;45570;-72
2022/03/11 08:52:19;;;;;;;;;4.00;2.75;;;;;25.15;39.12;100691.81;5014744;28;45475;-72
2022/03/11 08:54:46;;;;;;;;;3.75;3.00;;;;;25.94;37.84;100690.53;5010264;28;45316;-72
2022/03/11 08:57:11;;;;;;;;;3.00;3.00;;;;;26.71;37.26;100705.38;5013614;28;45780;-72
2022/03/11 08:59:37;;;;;;;;;4.25;2.50;;;;;27.23;35.80;100693.28;5013334;28;45392;-72
2022/03/11 09:02:03;;;;;;;;;5.75;4.00;;;;;28.01;35.29;100695.88;5013659;28;45465;-72
2022/03/11 09:04:28;;;;;;;;;5.00;3.00;;;;;28.23;34.96;100699.59;5013486;28;46996;-73
2022/03/11 09:06:54;;;;;;;;;4.50;3.75;;;;;26.99;34.46;100696.84;5013779;28;45369;-72
2022/03/11 09:09:19;;;;;;;;;3.00;2.00;;;;;25.55;34.45;100699.19;5014061;28;45646;-71
2022/03/11 09:11:44;;;;;;;;;2.00;2.00;;;;;23.99;34.85;100699.19;5012962;28;45710;-71
2022/03/11 09:14:11;;;;;;;;;6.25;4.25;;;;;22.57;36.69;100695.06;5012006;28;46270;-70
2022/03/11 09:16:37;;;;;;;;;2.75;2.75;;;;;21.31;37.41;100697.63;5013102;28;46003;-70
2022/03/11 09:19:02;;;;;;;;;2.50;2.50;;;;;20.36;38.95;100696.97;5004760;28;45388;-70
2022/03/11 09:21:28;;;;;;;;;3.00;3.00;;;;;19.70;40.09;100693.59;5011420;28;45498;-71
2022/03/11 09:23:54;;;;;;;;;5.50;4.50;;;;;19.22;40.63;100694.72;5013659;28;46915;-70
2022/03/11 09:26:19;;;;;;;;;4.50;4.50;;;;;19.02;41.48;100680.34;4999491;28;46047;-73
2022/03/11 09:28:44;;;;;;;;;2.00;2.00;;;;;18.88;41.87;100687.72;5011680;28;45365;-72
2022/03/11 09:31:10;;;;;;;;;5.00;5.00;;;;;18.79;42.59;100681.28;5014369;28;45453;-70
2022/03/11 09:33:37;;;;;;;;;4.00;4.00;;;;;19.02;42.75;100676.81;5003182;28;45452;-72
2022/03/11 09:36:03;;;;;;;;;5.00;4.25;;;;;20.28;42.66;100670.91;5014012;28;45828;-71
2022/03/11 09:38:29;;;;;;;;;5.25;4.00;;;;;22.54;41.43;100673.06;5013106;28;45771;-71
2022/03/11 09:40:56;;;;;;;;;5.00;4.50;;;;;25.20;38.92;100666.13;5012760;28;45594;-71
2022/03/11 09:43:22;;;;;;;;;4.50;3.00;;;;;25.54;36.68;100665.22;5012354;28;45564;-71
2022/03/11 09:45:48;;;;;;;;;5.00;4.00;;;;;24.09;35.75;100678.47;5014495;28;45459;-71
2022/03/11 09:48:16;;;;;;;;;4.00;3.50;;;;;22.52;36.95;100681.25;5014145;28;45354;-71
2022/03/11 09:50:42;;;;;;;;;4.00;3.00;;;;;21.27;37.98;100673.97;5013574;28;45510;-71
2022/03/11 09:53:08;;;;;;;;;5.00;3.00;;;;;20.30;39.46;100670.75;5014973;28;45886;-70
2022/03/11 09:55:33;;;;;;;;;7.75;5.00;;;;;19.42;40.02;100677.16;5016523;28;45508;-73
2022/03/11 09:57:59;;;;;;;;;3.25;2.50;;;;;18.62;41.26;100676.41;5016598;28;45610;-72
2022/03/11 10:00:24;;;;;;;;;6.75;5.00;;;;;17.98;42.28;100672.34;5014095;28;46803;-70
2022/03/11 10:02:50;;;;;;;;;4.25;4.25;;;;;17.60;43.15;100679.66;5016301;28;45986;-72
2022/03/11 10:05:16;;;;;;;;;3.00;3.00;;;;;17.24;43.63;100665.41;5016053;28;45366;-72
2022/03/11 10:07:42;;;;;;;;;3.75;2.00;;;;;16.95;44.37;100663.00;5016253;28;45624;-72
2022/03/11 10:10:16;;;;;;;;;2.00;2.00;;;;;16.86;44.82;100660.16;5016457;28;45255;-72
2022/03/11 10:12:45;;;;;;;;;3.75;3.25;;;;;16.82;45.61;100664.84;5016675;28;45980;-72
2022/03/11 10:15:11;;;;;;;;;4.00;3.00;;;;;16.73;45.68;100640.75;5015980;28;45258;-72
2022/03/11 10:17:41;;;;;;;;;2.75;2.25;;;;;16.37;49.75;100629.06;5016337;28;45480;-72
2022/03/11 10:20:09;;;;;;;;;3.25;3.25;;;;;15.63;51.36;100625.19;5016253;28;45476;-72
2022/03/11 10:22:35;;;;;;;;;4.00;2.75;;;;;15.12;52.94;100632.88;5015922;28;45520;-73
2022/03/11 10:25:08;;;;;;;;;2.50;2.50;;;;;14.94;51.22;100621.66;5000349;28;45407;-72
2022/03/11 10:27:52;;;;;;;;;4.50;3.25;;;;;14.89;51.44;100610.53;5015276;28;45369;-72
2022/03/11 10:30:17;;;;;;;;;4.75;3.25;;;;;14.99;51.84;100613.44;5016208;28;45476;-72
2022/03/11 10:32:53;;;;;;;;;2.00;2.00;;;;;15.29;51.87;100614.09;5015898;28;45463;-72
2022/03/11 10:35:20;;;;;;;;;5.25;4.00;;;;;15.74;51.43;100604.13;5019781;28;45366;-73
2022/03/11 10:37:57;;;;;;;;;3.00;1.50;;;;;16.35;51.26;100617.72;5026363;28;45432;-72
2022/03/11 10:40:22;;;;;;;;;3.75;3.50;;;;;16.82;50.02;100633.00;5016532;28;45668;-72
2022/03/11 10:42:48;;;;;;;;;2.00;1.75;;;;;17.07;49.73;100628.56;5015180;28;46902;-73
2022/03/11 10:45:14;;;;;;;;;2.00;2.00;;;;;17.18;49.39;100636.66;5015445;28;45389;-73
2022/03/11 10:47:41;;;;;;;;;5.50;2.50;;;;;17.29;49.09;100646.50;5016315;28;45435;-72
2022/03/11 10:50:07;;;;;;;;;3.50;2.00;;;;;17.33;49.04;100650.59;5015744;28;45455;-73
2022/03/11 10:52:34;;;;;;;;;4.00;3.00;;;;;17.26;48.33;100639.56;5016598;28;47148;-70
2022/03/11 10:55:01;;;;;;;;;5.00;2.25;;;;;17.26;48.92;100647.53;5017973;28;45889;-71
2022/03/11 10:57:35;;;;;;;;;3.50;2.75;;;;;17.36;49.24;100640.59;5015213;28;46494;-70
2022/03/11 11:00:21;;;;;;;;;3.00;3.00;;;;;17.40;48.61;100627.97;5019501;28;45440;-71
2022/03/11 11:03:13;;;;;;;;;1.75;1.75;;;;;17.25;48.54;100642.34;5011982;28;47199;-71
2022/03/11 11:05:39;;;;;;;;;3.50;3.00;;;;;17.01;48.24;100644.94;5011631;28;45436;-71
2022/03/11 11:08:06;;;;;;;;;4.50;3.00;;;;;16.85;48.42;100645.19;5016368;28;45518;-72
2022/03/11 11:10:34;;;;;;;;;5.00;3.00;;;;;16.71;48.57;100643.53;4998160;28;45584;-71
2022/03/11 11:12:59;;;;;;;;;4.25;3.00;;;;;16.63;48.97;100640.50;5018462;28;46998;-72
2022/03/11 11:15:25;;;;;;;;;4.00;3.00;;;;;16.61;48.98;100651.25;5013518;28;45371;-73